sensor_id;sensor_type;location;lat;lon;timestamp;temperature;humidity
54485;DHT22;45006;56.958;24.166;2023-04-25T00:00:55;22.30;81.90
54485;DHT22;45006;56.958;24.166;2023-04-25T00:03:23;22.30;81.80
54485;DHT22;45006;56.958;24.166;2023-04-25T00:05:52;22.30;83.00
54485;DHT22;45006;56.958;24.166;2023-04-25T00:08:19;22.30;82.40
54485;DHT22;45006;56.958;24.166;2023-04-25T00:10:46;22.40;82.20
54485;DHT22;45006;56.958;24.166;2023-04-25T00:13:13;22.40;82.50
54485;DHT22;45006;56.958;24.166;2023-04-25T00:15:40;22.40;82.80
54485;DHT22;45006;56.958;24.166;2023-04-25T00:18:08;22.40;82.60
54485;DHT22;45006;56.958;24.166;2023-04-25T00:20:36;22.40;83.10
54485;DHT22;45006;56.958;24.166;2023-04-25T00:23:03;22.30;82.80
54485;DHT22;45006;56.958;24.166;2023-04-25T00:25:30;22.40;82.80
54485;DHT22;45006;56.958;24.166;2023-04-25T00:27:58;22.40;83.20
54485;DHT22;45006;56.958;24.166;2023-04-25T00:30:25;22.40;82.90
54485;DHT22;45006;56.958;24.166;2023-04-25T00:32:52;22.40;83.00
54485;DHT22;45006;56.958;24.166;2023-04-25T00:35:20;22.40;83.50
54485;DHT22;45006;56.958;24.166;2023-04-25T00:37:47;22.40;83.00
54485;DHT22;45006;56.958;24.166;2023-04-25T00:40:17;22.40;82.80
54485;DHT22;45006;56.958;24.166;2023-04-25T00:42:45;22.40;83.70
54485;DHT22;45006;56.958;24.166;2023-04-25T00:45:14;22.40;84.00
54485;DHT22;45006;56.958;24.166;2023-04-25T00:47:42;22.40;83.40
54485;DHT22;45006;56.958;24.166;2023-04-25T00:50:09;22.40;83.60
54485;DHT22;45006;56.958;24.166;2023-04-25T00:52:41;22.40;83.90
54485;DHT22;45006;56.958;24.166;2023-04-25T00:55:10;22.40;83.70
54485;DHT22;45006;56.958;24.166;2023-04-25T00:57:38;22.40;83.70
54485;DHT22;45006;56.958;24.166;2023-04-25T01:00:07;22.40;83.70
54485;DHT22;45006;56.958;24.166;2023-04-25T01:02:36;22.40;83.90
54485;DHT22;45006;56.958;24.166;2023-04-25T01:05:04;22.40;83.80
54485;DHT22;45006;56.958;24.166;2023-04-25T01:07:31;22.40;83.80
54485;DHT22;45006;56.958;24.166;2023-04-25T01:10:00;22.40;83.70
54485;DHT22;45006;56.958;24.166;2023-04-25T01:12:27;22.40;83.60
54485;DHT22;45006;56.958;24.166;2023-04-25T01:14:55;22.40;83.80
54485;DHT22;45006;56.958;24.166;2023-04-25T01:17:22;22.40;83.60
54485;DHT22;45006;56.958;24.166;2023-04-25T01:19:50;22.40;83.90
54485;DHT22;45006;56.958;24.166;2023-04-25T01:22:17;22.40;83.80
54485;DHT22;45006;56.958;24.166;2023-04-25T01:24:44;22.40;83.80
54485;DHT22;45006;56.958;24.166;2023-04-25T01:27:11;22.40;83.80
54485;DHT22;45006;56.958;24.166;2023-04-25T01:29:39;22.40;83.30
54485;DHT22;45006;56.958;24.166;2023-04-25T01:32:06;22.40;83.70
54485;DHT22;45006;56.958;24.166;2023-04-25T01:34:35;22.40;83.80
54485;DHT22;45006;56.958;24.166;2023-04-25T01:37:02;22.40;83.80
54485;DHT22;45006;56.958;24.166;2023-04-25T01:39:29;22.40;83.50
54485;DHT22;45006;56.958;24.166;2023-04-25T01:41:57;22.40;83.50
54485;DHT22;45006;56.958;24.166;2023-04-25T01:44:24;22.40;83.40
54485;DHT22;45006;56.958;24.166;2023-04-25T01:46:52;22.40;83.60
54485;DHT22;45006;56.958;24.166;2023-04-25T01:49:21;22.40;83.20
54485;DHT22;45006;56.958;24.166;2023-04-25T01:51:48;22.40;83.50
54485;DHT22;45006;56.958;24.166;2023-04-25T01:54:17;22.40;83.40
54485;DHT22;45006;56.958;24.166;2023-04-25T01:56:50;22.40;83.50
54485;DHT22;45006;56.958;24.166;2023-04-25T01:59:18;22.40;83.60
54485;DHT22;45006;56.958;24.166;2023-04-25T02:01:47;22.40;83.60
54485;DHT22;45006;56.958;24.166;2023-04-25T02:04:14;22.40;83.60
54485;DHT22;45006;56.958;24.166;2023-04-25T02:06:41;22.40;83.40
54485;DHT22;45006;56.958;24.166;2023-04-25T02:09:08;22.40;83.80
54485;DHT22;45006;56.958;24.166;2023-04-25T02:11:35;22.40;83.60
54485;DHT22;45006;56.958;24.166;2023-04-25T02:14:02;22.40;83.60
54485;DHT22;45006;56.958;24.166;2023-04-25T02:16:29;22.40;83.70
54485;DHT22;45006;56.958;24.166;2023-04-25T02:18:57;22.40;83.50
54485;DHT22;45006;56.958;24.166;2023-04-25T02:21:25;22.40;83.60
54485;DHT22;45006;56.958;24.166;2023-04-25T02:23:53;22.40;83.60
54485;DHT22;45006;56.958;24.166;2023-04-25T02:26:20;22.40;83.60
54485;DHT22;45006;56.958;24.166;2023-04-25T02:28:48;22.40;83.50
54485;DHT22;45006;56.958;24.166;2023-04-25T02:31:15;22.40;83.70
54485;DHT22;45006;56.958;24.166;2023-04-25T02:33:43;22.40;83.80
54485;DHT22;45006;56.958;24.166;2023-04-25T02:36:11;22.40;84.40
54485;DHT22;45006;56.958;24.166;2023-04-25T02:38:38;22.40;83.80
54485;DHT22;45006;56.958;24.166;2023-04-25T02:41:05;22.40;83.80
54485;DHT22;45006;56.958;24.166;2023-04-25T02:43:32;22.40;83.80
54485;DHT22;45006;56.958;24.166;2023-04-25T02:45:59;22.40;83.80
54485;DHT22;45006;56.958;24.166;2023-04-25T02:48:31;22.40;83.80
54485;DHT22;45006;56.958;24.166;2023-04-25T02:50:58;22.40;83.80
54485;DHT22;45006;56.958;24.166;2023-04-25T02:53:25;22.40;83.70
54485;DHT22;45006;56.958;24.166;2023-04-25T02:55:52;22.40;83.80
54485;DHT22;45006;56.958;24.166;2023-04-25T02:58:19;22.40;83.80
54485;DHT22;45006;56.958;24.166;2023-04-25T03:00:46;22.40;83.80
54485;DHT22;45006;56.958;24.166;2023-04-25T03:03:14;22.40;83.80
54485;DHT22;45006;56.958;24.166;2023-04-25T03:05:44;22.40;83.90
54485;DHT22;45006;56.958;24.166;2023-04-25T03:08:13;22.40;83.60
54485;DHT22;45006;56.958;24.166;2023-04-25T03:10:41;22.40;83.80
54485;DHT22;45006;56.958;24.166;2023-04-25T03:13:08;22.40;83.90
54485;DHT22;45006;56.958;24.166;2023-04-25T03:15:37;22.40;83.40
54485;DHT22;45006;56.958;24.166;2023-04-25T03:18:04;22.40;83.30
54485;DHT22;45006;56.958;24.166;2023-04-25T03:20:32;22.40;83.80
54485;DHT22;45006;56.958;24.166;2023-04-25T03:23:01;22.40;83.50
54485;DHT22;45006;56.958;24.166;2023-04-25T03:25:28;22.50;83.70
54485;DHT22;45006;56.958;24.166;2023-04-25T03:27:54;22.40;83.20
54485;DHT22;45006;56.958;24.166;2023-04-25T03:30:22;22.40;83.10
54485;DHT22;45006;56.958;24.166;2023-04-25T03:32:49;22.40;83.40
54485;DHT22;45006;56.958;24.166;2023-04-25T03:35:16;22.40;83.30
54485;DHT22;45006;56.958;24.166;2023-04-25T03:37:43;22.40;83.50
54485;DHT22;45006;56.958;24.166;2023-04-25T03:40:14;22.40;83.40
54485;DHT22;45006;56.958;24.166;2023-04-25T03:42:41;22.40;83.40
54485;DHT22;45006;56.958;24.166;2023-04-25T03:45:11;22.40;83.20
54485;DHT22;45006;56.958;24.166;2023-04-25T03:47:39;22.40;83.30
54485;DHT22;45006;56.958;24.166;2023-04-25T03:50:07;22.40;83.10
54485;DHT22;45006;56.958;24.166;2023-04-25T03:52:34;22.40;83.40
54485;DHT22;45006;56.958;24.166;2023-04-25T03:55:04;22.40;83.40
54485;DHT22;45006;56.958;24.166;2023-04-25T03:57:31;22.40;83.20
54485;DHT22;45006;56.958;24.166;2023-04-25T03:59:58;22.40;83.10
54485;DHT22;45006;56.958;24.166;2023-04-25T04:02:25;22.40;83.30
54485;DHT22;45006;56.958;24.166;2023-04-25T04:04:54;22.40;83.50
54485;DHT22;45006;56.958;24.166;2023-04-25T04:07:24;22.40;83.50
54485;DHT22;45006;56.958;24.166;2023-04-25T04:09:53;22.40;83.50
54485;DHT22;45006;56.958;24.166;2023-04-25T04:12:20;22.40;83.50
54485;DHT22;45006;56.958;24.166;2023-04-25T04:14:47;22.40;83.40
54485;DHT22;45006;56.958;24.166;2023-04-25T04:17:14;22.40;83.80
54485;DHT22;45006;56.958;24.166;2023-04-25T04:19:41;22.40;83.70
54485;DHT22;45006;56.958;24.166;2023-04-25T04:22:08;22.40;83.90
54485;DHT22;45006;56.958;24.166;2023-04-25T04:24:35;22.40;84.00
54485;DHT22;45006;56.958;24.166;2023-04-25T04:27:02;22.40;84.00
54485;DHT22;45006;56.958;24.166;2023-04-25T04:29:30;22.40;84.10
54485;DHT22;45006;56.958;24.166;2023-04-25T04:31:58;22.40;83.90
54485;DHT22;45006;56.958;24.166;2023-04-25T04:34:25;22.40;84.00
54485;DHT22;45006;56.958;24.166;2023-04-25T04:36:53;22.40;84.20
54485;DHT22;45006;56.958;24.166;2023-04-25T04:39:20;22.40;84.10
54485;DHT22;45006;56.958;24.166;2023-04-25T04:41:48;22.40;83.80
54485;DHT22;45006;56.958;24.166;2023-04-25T04:44:16;22.40;84.50
54485;DHT22;45006;56.958;24.166;2023-04-25T04:46:43;22.40;84.30
54485;DHT22;45006;56.958;24.166;2023-04-25T04:49:11;22.40;84.40
54485;DHT22;45006;56.958;24.166;2023-04-25T04:51:39;22.40;84.40
54485;DHT22;45006;56.958;24.166;2023-04-25T04:54:07;22.40;84.70
54485;DHT22;45006;56.958;24.166;2023-04-25T04:56:34;22.40;84.70
54485;DHT22;45006;56.958;24.166;2023-04-25T04:59:01;22.40;84.90
54485;DHT22;45006;56.958;24.166;2023-04-25T05:01:29;22.40;84.90
54485;DHT22;45006;56.958;24.166;2023-04-25T05:03:59;22.40;85.00
54485;DHT22;45006;56.958;24.166;2023-04-25T05:06:28;22.40;85.00
54485;DHT22;45006;56.958;24.166;2023-04-25T05:08:58;22.40;85.00
54485;DHT22;45006;56.958;24.166;2023-04-25T05:11:25;22.40;84.90
54485;DHT22;45006;56.958;24.166;2023-04-25T05:13:52;22.40;85.10
54485;DHT22;45006;56.958;24.166;2023-04-25T05:16:20;22.40;84.60
54485;DHT22;45006;56.958;24.166;2023-04-25T05:18:47;22.40;84.90
54485;DHT22;45006;56.958;24.166;2023-04-25T05:21:16;22.50;85.20
54485;DHT22;45006;56.958;24.166;2023-04-25T05:23:43;22.40;85.00
54485;DHT22;45006;56.958;24.166;2023-04-25T05:26:10;22.40;85.10
54485;DHT22;45006;56.958;24.166;2023-04-25T05:28:40;22.40;85.60
54485;DHT22;45006;56.958;24.166;2023-04-25T05:31:12;22.40;85.40
54485;DHT22;45006;56.958;24.166;2023-04-25T05:33:41;22.40;85.40
54485;DHT22;45006;56.958;24.166;2023-04-25T05:36:08;22.40;85.40
54485;DHT22;45006;56.958;24.166;2023-04-25T05:38:36;22.40;85.60
54485;DHT22;45006;56.958;24.166;2023-04-25T05:41:02;22.40;85.80
54485;DHT22;45006;56.958;24.166;2023-04-25T05:43:30;22.40;85.50
54485;DHT22;45006;56.958;24.166;2023-04-25T05:45:57;22.50;86.00
54485;DHT22;45006;56.958;24.166;2023-04-25T05:48:28;22.40;85.90
54485;DHT22;45006;56.958;24.166;2023-04-25T05:50:55;22.50;86.00
54485;DHT22;45006;56.958;24.166;2023-04-25T05:53:22;22.50;86.20
54485;DHT22;45006;56.958;24.166;2023-04-25T05:55:49;22.40;86.10
54485;DHT22;45006;56.958;24.166;2023-04-25T05:58:16;22.50;86.30
54485;DHT22;45006;56.958;24.166;2023-04-25T06:00:43;22.50;86.30
54485;DHT22;45006;56.958;24.166;2023-04-25T06:03:11;22.50;86.30
54485;DHT22;45006;56.958;24.166;2023-04-25T06:05:41;22.50;86.30
54485;DHT22;45006;56.958;24.166;2023-04-25T06:08:09;22.50;86.30
54485;DHT22;45006;56.958;24.166;2023-04-25T06:10:37;22.50;86.30
54485;DHT22;45006;56.958;24.166;2023-04-25T06:13:05;22.50;86.30
54485;DHT22;45006;56.958;24.166;2023-04-25T06:15:33;22.50;86.40
54485;DHT22;45006;56.958;24.166;2023-04-25T06:18:01;22.50;86.50
54485;DHT22;45006;56.958;24.166;2023-04-25T06:20:32;22.50;86.50
54485;DHT22;45006;56.958;24.166;2023-04-25T06:22:58;22.50;86.50
54485;DHT22;45006;56.958;24.166;2023-04-25T06:25:26;22.50;86.50
54485;DHT22;45006;56.958;24.166;2023-04-25T06:27:52;22.60;86.60
54485;DHT22;45006;56.958;24.166;2023-04-25T06:30:24;22.60;86.40
54485;DHT22;45006;56.958;24.166;2023-04-25T06:32:52;22.60;86.80
54485;DHT22;45006;56.958;24.166;2023-04-25T06:35:20;22.60;86.80
54485;DHT22;45006;56.958;24.166;2023-04-25T06:37:47;22.60;86.50
54485;DHT22;45006;56.958;24.166;2023-04-25T06:40:14;22.60;86.80
54485;DHT22;45006;56.958;24.166;2023-04-25T06:42:42;22.70;86.60
54485;DHT22;45006;56.958;24.166;2023-04-25T06:45:11;22.60;86.60
54485;DHT22;45006;56.958;24.166;2023-04-25T06:47:38;22.70;86.50
54485;DHT22;45006;56.958;24.166;2023-04-25T06:50:08;22.70;86.60
54485;DHT22;45006;56.958;24.166;2023-04-25T06:52:35;22.70;86.70
54485;DHT22;45006;56.958;24.166;2023-04-25T06:55:03;22.70;86.40
54485;DHT22;45006;56.958;24.166;2023-04-25T06:57:31;22.70;86.60
54485;DHT22;45006;56.958;24.166;2023-04-25T06:59:59;22.70;86.30
54485;DHT22;45006;56.958;24.166;2023-04-25T07:02:28;22.70;83.40
54485;DHT22;45006;56.958;24.166;2023-04-25T07:04:55;22.70;83.80
54485;DHT22;45006;56.958;24.166;2023-04-25T07:07:26;22.70;83.60
54485;DHT22;45006;56.958;24.166;2023-04-25T07:09:54;22.70;80.50
54485;DHT22;45006;56.958;24.166;2023-04-25T07:12:21;22.70;79.60
54485;DHT22;45006;56.958;24.166;2023-04-25T07:14:48;22.60;80.70
54485;DHT22;45006;56.958;24.166;2023-04-25T07:17:15;22.70;81.30
54485;DHT22;45006;56.958;24.166;2023-04-25T07:19:42;22.70;80.40
54485;DHT22;45006;56.958;24.166;2023-04-25T07:22:24;22.70;80.40
54485;DHT22;45006;56.958;24.166;2023-04-25T07:24:55;22.70;80.00
54485;DHT22;45006;56.958;24.166;2023-04-25T07:27:23;22.70;79.40
54485;DHT22;45006;56.958;24.166;2023-04-25T07:29:50;22.60;79.00
54485;DHT22;45006;56.958;24.166;2023-04-25T07:32:17;22.60;78.30
54485;DHT22;45006;56.958;24.166;2023-04-25T07:34:46;22.60;78.20
54485;DHT22;45006;56.958;24.166;2023-04-25T07:37:16;22.60;78.20
54485;DHT22;45006;56.958;24.166;2023-04-25T07:39:43;22.60;77.90
54485;DHT22;45006;56.958;24.166;2023-04-25T07:42:13;22.60;77.10
54485;DHT22;45006;56.958;24.166;2023-04-25T07:44:40;22.60;76.70
54485;DHT22;45006;56.958;24.166;2023-04-25T07:47:09;22.60;74.30
54485;DHT22;45006;56.958;24.166;2023-04-25T07:49:37;22.60;75.60
54485;DHT22;45006;56.958;24.166;2023-04-25T07:52:09;22.60;76.00
54485;DHT22;45006;56.958;24.166;2023-04-25T07:54:36;22.60;72.70
54485;DHT22;45006;56.958;24.166;2023-04-25T07:57:03;22.60;73.80
54485;DHT22;45006;56.958;24.166;2023-04-25T07:59:32;22.60;73.90
54485;DHT22;45006;56.958;24.166;2023-04-25T08:02:00;22.60;73.60
54485;DHT22;45006;56.958;24.166;2023-04-25T08:04:28;22.60;73.10
54485;DHT22;45006;56.958;24.166;2023-04-25T08:06:57;22.60;69.70
54485;DHT22;45006;56.958;24.166;2023-04-25T08:09:24;22.50;71.60
54485;DHT22;45006;56.958;24.166;2023-04-25T08:11:51;22.50;64.30
54485;DHT22;45006;56.958;24.166;2023-04-25T08:14:19;22.40;61.00
54485;DHT22;45006;56.958;24.166;2023-04-25T08:16:46;22.30;59.30
54485;DHT22;45006;56.958;24.166;2023-04-25T08:19:15;22.20;59.80
54485;DHT22;45006;56.958;24.166;2023-04-25T08:21:42;22.20;55.70
54485;DHT22;45006;56.958;24.166;2023-04-25T08:24:09;22.10;52.70
54485;DHT22;45006;56.958;24.166;2023-04-25T08:26:36;22.00;52.10
54485;DHT22;45006;56.958;24.166;2023-04-25T08:29:05;22.00;51.90
54485;DHT22;45006;56.958;24.166;2023-04-25T08:31:33;22.00;55.00
54485;DHT22;45006;56.958;24.166;2023-04-25T08:34:00;22.00;53.50
54485;DHT22;45006;56.958;24.166;2023-04-25T08:36:27;22.00;54.60
54485;DHT22;45006;56.958;24.166;2023-04-25T08:39:05;22.00;55.30
54485;DHT22;45006;56.958;24.166;2023-04-25T08:41:32;22.00;55.80
54485;DHT22;45006;56.958;24.166;2023-04-25T08:44:01;22.10;55.00
54485;DHT22;45006;56.958;24.166;2023-04-25T08:46:30;22.10;56.60
54485;DHT22;45006;56.958;24.166;2023-04-25T08:49:01;22.10;56.00
54485;DHT22;45006;56.958;24.166;2023-04-25T08:51:32;22.10;55.80
54485;DHT22;45006;56.958;24.166;2023-04-25T08:54:11;22.10;55.50
54485;DHT22;45006;56.958;24.166;2023-04-25T08:57:10;22.10;56.00
54485;DHT22;45006;56.958;24.166;2023-04-25T08:59:37;22.10;57.70
54485;DHT22;45006;56.958;24.166;2023-04-25T09:02:05;22.20;57.10
54485;DHT22;45006;56.958;24.166;2023-04-25T09:04:32;22.20;57.00
54485;DHT22;45006;56.958;24.166;2023-04-25T09:06:59;22.20;57.30
54485;DHT22;45006;56.958;24.166;2023-04-25T09:09:26;22.20;58.50
54485;DHT22;45006;56.958;24.166;2023-04-25T09:11:54;22.20;57.50
54485;DHT22;45006;56.958;24.166;2023-04-25T09:14:23;22.20;57.00
54485;DHT22;45006;56.958;24.166;2023-04-25T09:22:05;22.20;57.30
54485;DHT22;45006;56.958;24.166;2023-04-25T09:27:06;22.20;58.70
54485;DHT22;45006;56.958;24.166;2023-04-25T09:29:36;22.20;58.50
54485;DHT22;45006;56.958;24.166;2023-04-25T09:34:43;22.20;58.50
54485;DHT22;45006;56.958;24.166;2023-04-25T09:39:59;22.20;60.20
54485;DHT22;45006;56.958;24.166;2023-04-25T09:42:32;22.20;60.10
54485;DHT22;45006;56.958;24.166;2023-04-25T09:45:02;22.30;60.10
54485;DHT22;45006;56.958;24.166;2023-04-25T09:47:30;22.20;61.20
54485;DHT22;45006;56.958;24.166;2023-04-25T09:49:57;22.20;60.70
54485;DHT22;45006;56.958;24.166;2023-04-25T09:52:25;22.20;60.40
54485;DHT22;45006;56.958;24.166;2023-04-25T09:54:53;22.30;60.70
54485;DHT22;45006;56.958;24.166;2023-04-25T09:57:23;22.30;60.70
54485;DHT22;45006;56.958;24.166;2023-04-25T09:59:53;22.20;61.40
54485;DHT22;45006;56.958;24.166;2023-04-25T10:02:25;22.30;61.70
54485;DHT22;45006;56.958;24.166;2023-04-25T10:04:54;22.30;61.90
54485;DHT22;45006;56.958;24.166;2023-04-25T10:07:30;22.20;61.00
54485;DHT22;45006;56.958;24.166;2023-04-25T10:10:02;22.20;61.30
54485;DHT22;45006;56.958;24.166;2023-04-25T10:12:31;22.30;62.20
54485;DHT22;45006;56.958;24.166;2023-04-25T10:15:00;22.30;62.10
54485;DHT22;45006;56.958;24.166;2023-04-25T10:17:28;22.30;62.30
54485;DHT22;45006;56.958;24.166;2023-04-25T10:19:57;22.30;62.40
54485;DHT22;45006;56.958;24.166;2023-04-25T10:22:38;22.30;62.50
54485;DHT22;45006;56.958;24.166;2023-04-25T10:25:07;22.30;62.80
54485;DHT22;45006;56.958;24.166;2023-04-25T10:27:39;22.30;58.80
54485;DHT22;45006;56.958;24.166;2023-04-25T10:30:16;22.20;55.60
54485;DHT22;45006;56.958;24.166;2023-04-25T10:32:44;22.10;54.90
54485;DHT22;45006;56.958;24.166;2023-04-25T10:35:18;22.10;54.40
54485;DHT22;45006;56.958;24.166;2023-04-25T10:38:05;22.10;55.20
54485;DHT22;45006;56.958;24.166;2023-04-25T10:40:33;22.10;54.20
54485;DHT22;45006;56.958;24.166;2023-04-25T10:46:00;22.10;54.00
54485;DHT22;45006;56.958;24.166;2023-04-25T10:48:30;22.00;53.00
54485;DHT22;45006;56.958;24.166;2023-04-25T10:51:10;22.10;53.50
54485;DHT22;45006;56.958;24.166;2023-04-25T10:53:38;22.10;52.70
54485;DHT22;45006;56.958;24.166;2023-04-25T10:56:21;22.00;53.10
54485;DHT22;45006;56.958;24.166;2023-04-25T10:58:49;22.00;52.50
54485;DHT22;45006;56.958;24.166;2023-04-25T11:01:25;22.00;52.80
54485;DHT22;45006;56.958;24.166;2023-04-25T11:03:57;22.00;52.30
54485;DHT22;45006;56.958;24.166;2023-04-25T11:09:12;22.00;52.30
54485;DHT22;45006;56.958;24.166;2023-04-25T11:11:42;22.00;52.70
54485;DHT22;45006;56.958;24.166;2023-04-25T11:14:09;22.00;52.80
54485;DHT22;45006;56.958;24.166;2023-04-25T11:16:36;22.00;54.10
54485;DHT22;45006;56.958;24.166;2023-04-25T11:19:03;22.10;55.50
54485;DHT22;45006;56.958;24.166;2023-04-25T11:21:30;22.10;57.20
54485;DHT22;45006;56.958;24.166;2023-04-25T11:23:59;22.10;57.40
54485;DHT22;45006;56.958;24.166;2023-04-25T11:26:27;22.10;57.80
54485;DHT22;45006;56.958;24.166;2023-04-25T11:28:58;22.10;59.80
54485;DHT22;45006;56.958;24.166;2023-04-25T11:31:29;22.20;60.00
54485;DHT22;45006;56.958;24.166;2023-04-25T11:33:58;22.20;60.00
54485;DHT22;45006;56.958;24.166;2023-04-25T11:36:25;22.20;58.30
54485;DHT22;45006;56.958;24.166;2023-04-25T11:38:53;22.20;61.10
54485;DHT22;45006;56.958;24.166;2023-04-25T11:41:21;22.20;62.20
54485;DHT22;45006;56.958;24.166;2023-04-25T11:43:49;22.20;62.40
54485;DHT22;45006;56.958;24.166;2023-04-25T11:46:18;22.20;62.60
54485;DHT22;45006;56.958;24.166;2023-04-25T11:48:51;22.30;62.40
54485;DHT22;45006;56.958;24.166;2023-04-25T11:51:18;22.30;62.90
54485;DHT22;45006;56.958;24.166;2023-04-25T11:53:45;22.30;63.70
54485;DHT22;45006;56.958;24.166;2023-04-25T11:56:13;22.30;63.20
54485;DHT22;45006;56.958;24.166;2023-04-25T11:58:59;22.30;63.40
54485;DHT22;45006;56.958;24.166;2023-04-25T12:01:32;22.30;64.20
54485;DHT22;45006;56.958;24.166;2023-04-25T12:04:12;22.30;64.40
54485;DHT22;45006;56.958;24.166;2023-04-25T12:06:41;22.30;64.90
54485;DHT22;45006;56.958;24.166;2023-04-25T12:09:10;22.30;64.80
54485;DHT22;45006;56.958;24.166;2023-04-25T12:11:41;22.30;64.90
54485;DHT22;45006;56.958;24.166;2023-04-25T12:14:10;22.40;64.80
54485;DHT22;45006;56.958;24.166;2023-04-25T12:16:41;22.30;65.90
54485;DHT22;45006;56.958;24.166;2023-04-25T12:19:09;22.30;65.30
54485;DHT22;45006;56.958;24.166;2023-04-25T12:21:36;22.30;65.70
54485;DHT22;45006;56.958;24.166;2023-04-25T12:24:24;22.40;65.80
54485;DHT22;45006;56.958;24.166;2023-04-25T12:27:04;22.30;65.80
54485;DHT22;45006;56.958;24.166;2023-04-25T12:29:33;22.30;65.60
54485;DHT22;45006;56.958;24.166;2023-04-25T12:32:15;22.40;64.40
54485;DHT22;45006;56.958;24.166;2023-04-25T12:34:42;22.40;64.80
54485;DHT22;45006;56.958;24.166;2023-04-25T12:37:11;22.30;62.40
54485;DHT22;45006;56.958;24.166;2023-04-25T12:39:38;22.30;62.40
54485;DHT22;45006;56.958;24.166;2023-04-25T12:42:05;22.30;63.80
54485;DHT22;45006;56.958;24.166;2023-04-25T12:44:35;22.30;62.30
54485;DHT22;45006;56.958;24.166;2023-04-25T12:47:03;22.30;62.30
54485;DHT22;45006;56.958;24.166;2023-04-25T12:49:30;22.40;59.70
54485;DHT22;45006;56.958;24.166;2023-04-25T12:51:58;22.30;60.00
54485;DHT22;45006;56.958;24.166;2023-04-25T12:54:26;22.30;60.90
54485;DHT22;45006;56.958;24.166;2023-04-25T12:56:53;22.30;59.60
54485;DHT22;45006;56.958;24.166;2023-04-25T12:59:20;22.30;61.10
54485;DHT22;45006;56.958;24.166;2023-04-25T13:01:47;22.30;60.80
54485;DHT22;45006;56.958;24.166;2023-04-25T13:04:15;22.30;62.70
54485;DHT22;45006;56.958;24.166;2023-04-25T13:06:43;22.30;60.80
54485;DHT22;45006;56.958;24.166;2023-04-25T13:09:10;22.30;63.00
54485;DHT22;45006;56.958;24.166;2023-04-25T13:11:39;22.30;62.90
54485;DHT22;45006;56.958;24.166;2023-04-25T13:14:08;22.30;63.40
54485;DHT22;45006;56.958;24.166;2023-04-25T13:16:35;22.30;63.40
54485;DHT22;45006;56.958;24.166;2023-04-25T13:19:03;22.40;63.80
54485;DHT22;45006;56.958;24.166;2023-04-25T13:21:30;22.30;63.70
54485;DHT22;45006;56.958;24.166;2023-04-25T13:24:00;22.30;61.10
54485;DHT22;45006;56.958;24.166;2023-04-25T13:26:27;22.30;60.60
54485;DHT22;45006;56.958;24.166;2023-04-25T13:28:57;22.30;61.10
54485;DHT22;45006;56.958;24.166;2023-04-25T13:31:24;22.30;61.70
54485;DHT22;45006;56.958;24.166;2023-04-25T13:33:53;22.20;62.10
54485;DHT22;45006;56.958;24.166;2023-04-25T13:36:20;22.20;61.80
54485;DHT22;45006;56.958;24.166;2023-04-25T13:38:48;22.20;61.50
54485;DHT22;45006;56.958;24.166;2023-04-25T13:41:17;22.20;62.80
54485;DHT22;45006;56.958;24.166;2023-04-25T13:43:46;22.20;62.70
54485;DHT22;45006;56.958;24.166;2023-04-25T13:46:16;22.20;60.90
54485;DHT22;45006;56.958;24.166;2023-04-25T13:49:01;22.20;60.70
54485;DHT22;45006;56.958;24.166;2023-04-25T13:51:38;22.20;62.20
54485;DHT22;45006;56.958;24.166;2023-04-25T13:54:05;22.20;62.30
54485;DHT22;45006;56.958;24.166;2023-04-25T13:56:32;22.20;62.50
54485;DHT22;45006;56.958;24.166;2023-04-25T13:58:59;22.20;62.90
54485;DHT22;45006;56.958;24.166;2023-04-25T14:01:26;22.20;62.70
54485;DHT22;45006;56.958;24.166;2023-04-25T14:03:56;22.20;62.80
54485;DHT22;45006;56.958;24.166;2023-04-25T14:06:23;22.20;62.00
54485;DHT22;45006;56.958;24.166;2023-04-25T14:08:51;22.20;61.30
54485;DHT22;45006;56.958;24.166;2023-04-25T14:11:18;22.20;60.20
54485;DHT22;45006;56.958;24.166;2023-04-25T14:13:45;22.20;61.80
54485;DHT22;45006;56.958;24.166;2023-04-25T14:16:12;22.20;62.50
54485;DHT22;45006;56.958;24.166;2023-04-25T14:18:41;22.20;62.30
54485;DHT22;45006;56.958;24.166;2023-04-25T14:21:08;22.20;63.20
54485;DHT22;45006;56.958;24.166;2023-04-25T14:23:36;22.20;62.00
54485;DHT22;45006;56.958;24.166;2023-04-25T14:26:03;22.20;62.20
54485;DHT22;45006;56.958;24.166;2023-04-25T14:28:30;22.20;62.80
54485;DHT22;45006;56.958;24.166;2023-04-25T14:30:57;22.20;63.10
54485;DHT22;45006;56.958;24.166;2023-04-25T14:33:24;22.20;62.80
54485;DHT22;45006;56.958;24.166;2023-04-25T14:35:51;22.20;60.40
54485;DHT22;45006;56.958;24.166;2023-04-25T14:38:20;22.20;60.90
54485;DHT22;45006;56.958;24.166;2023-04-25T14:40:51;22.10;62.70
54485;DHT22;45006;56.958;24.166;2023-04-25T14:43:18;22.10;64.70
54485;DHT22;45006;56.958;24.166;2023-04-25T14:45:45;22.10;63.50
54485;DHT22;45006;56.958;24.166;2023-04-25T14:48:12;22.10;63.00
54485;DHT22;45006;56.958;24.166;2023-04-25T14:50:39;22.10;63.60
54485;DHT22;45006;56.958;24.166;2023-04-25T14:53:06;22.10;63.70
54485;DHT22;45006;56.958;24.166;2023-04-25T14:55:33;22.10;63.90
54485;DHT22;45006;56.958;24.166;2023-04-25T14:58:00;22.10;63.80
54485;DHT22;45006;56.958;24.166;2023-04-25T15:00:27;22.10;64.10
54485;DHT22;45006;56.958;24.166;2023-04-25T15:02:55;22.10;64.10
54485;DHT22;45006;56.958;24.166;2023-04-25T15:05:22;22.10;64.90
54485;DHT22;45006;56.958;24.166;2023-04-25T15:07:49;22.10;64.10
54485;DHT22;45006;56.958;24.166;2023-04-25T15:10:18;22.10;64.20
54485;DHT22;45006;56.958;24.166;2023-04-25T15:12:45;22.10;64.10
54485;DHT22;45006;56.958;24.166;2023-04-25T15:15:14;22.10;64.30
54485;DHT22;45006;56.958;24.166;2023-04-25T15:17:51;22.10;64.10
54485;DHT22;45006;56.958;24.166;2023-04-25T15:20:18;22.10;64.10
54485;DHT22;45006;56.958;24.166;2023-04-25T15:22:45;22.10;64.30
54485;DHT22;45006;56.958;24.166;2023-04-25T15:25:12;22.00;64.10
54485;DHT22;45006;56.958;24.166;2023-04-25T15:27:39;22.10;64.20
54485;DHT22;45006;56.958;24.166;2023-04-25T15:30:12;22.00;64.30
54485;DHT22;45006;56.958;24.166;2023-04-25T15:32:45;22.00;64.00
54485;DHT22;45006;56.958;24.166;2023-04-25T15:35:13;22.00;64.30
54485;DHT22;45006;56.958;24.166;2023-04-25T15:37:41;22.10;63.80
54485;DHT22;45006;56.958;24.166;2023-04-25T15:40:11;22.00;63.90
54485;DHT22;45006;56.958;24.166;2023-04-25T15:42:41;22.00;63.80